Impacts TAF Board INFO
FOR SITUATIONAL AWARENESS. NOT TO BE USED FOR FLIGHT PLANNING PURPOSES.
IDs:

KLGA - New York/La Guardia, NY, US

Issued at 0215 UTC 23 May 2018
Updated at 0306 UTC 23 May 2018
Potential Impact None Slight Moderate High
Time<<23/16Z 23/17Z 23/18Z 23/19Z 23/20Z 23/21Z 23/22Z 23/23Z 24/00Z 24/01Z 24/02Z 24/03Z 24/04Z>>
Type PRVL PRVL PRVL PRVL PRVL PRVL PRVL PRVL PRVL PRVL PRVL PRVL PRVL
VIS >6 >6 >6 >6 >6 >6 >6 >6 >6 >6 >6 >6 >6
CIG -- -- -- -- -- -- -- -- -- -- -- -- --
Cover SCT SCT FEW FEW FEW FEW FEW FEW SKC SKC SKC SKC SKC
FltCat VFR VFR VFR VFR VFR VFR VFR VFR VFR VFR VFR VFR VFR
WX -- -- -- -- -- -- -- -- -- -- -- -- --
WDir 330 330 320 320 320 320 320 320 300 300 300 300 300
WSpd 10 10 10 10 10 10 10 10 7 7 7 7 7
WGst -- -- -- -- -- -- -- -- -- -- -- -- --

Raw TAF
KLGA 230215Z 2302/2406 05004KT 6SM BR OVC006
  FM230400 VRB04KT 3SM BR OVC005
  FM230600 VRB04KT 2SM BR VCSH OVC005
  FM231200 23004KT 4SM BR SCT015 BKN040
  TEMPO 2312/2314 BKN015
  FM231400 33008KT P6SM SCT020 SCT090
  FM231600 33010KT P6SM FEW040 SCT100
  FM231800 32010KT P6SM FEW050
  FM240000 30007KT P6SM SKC


METAR Board
Radar Display
Forecast Discussion

FOR SITUATIONAL AWARENESS. NOT TO BE USED FOR FLIGHT PLANNING PURPOSES.